Time;durP1;ratioP1;P1;durP2;ratioP2;P2;SDS_P1;SDS_P2;PMS_P1;PMS_P2;Temp;Humidity;BMP_temperature;BMP_pressure;BME280_temperature;BME280_humidity;BME280_pressure;Samples;Min_cycle;Max_cycle;Signal;HPM_P1;HPM_P2
2022/09/24 00:00:56;;;;;;;1.88;1.45;;;;;;;5.62;85.67;94998.78;5133685;27;20249;-74
2022/09/24 00:03:24;;;;;;;1.38;1.27;;;;;;;5.46;85.20;95005.44;5133582;27;20201;-74
2022/09/24 00:05:52;;;;;;;1.77;1.50;;;;;;;5.55;84.58;94995.66;5133199;27;20201;-75
2022/09/24 00:08:20;;;;;;;2.20;1.58;;;;;;;5.60;84.44;94995.59;5133344;27;20273;-75
2022/09/24 00:10:48;;;;;;;1.65;1.55;;;;;;;5.55;84.36;95006.41;5133396;27;20285;-75
2022/09/24 00:13:18;;;;;;;2.95;0.65;;;;;;;5.52;84.48;95001.59;5139934;27;20273;-75
2022/09/24 00:15:46;;;;;;;5.68;4.07;;;;;;;5.42;85.03;94999.03;5143900;27;20284;-76
2022/09/24 00:18:15;;;;;;;2.33;1.05;;;;;;;5.41;85.39;95005.50;5143445;27;20226;-76
2022/09/24 00:20:42;;;;;;;1.15;1.05;;;;;;;5.38;85.45;94998.00;5142428;27;20265;-76
2022/09/24 00:23:11;;;;;;;1.98;1.25;;;;;;;5.35;85.22;95003.94;5133338;27;20244;-75
2022/09/24 00:28:27;;;;;;;1.13;1.00;;;;;;;5.36;85.29;94994.78;5133155;27;20718;-75
2022/09/24 00:30:56;;;;;;;0.80;0.80;;;;;;;5.35;84.78;95006.63;5133128;27;20209;-75
2022/09/24 00:33:22;;;;;;;0.52;0.52;;;;;;;5.29;85.18;94997.84;5132554;27;20710;-75
2022/09/24 00:35:51;;;;;;;1.08;0.82;;;;;;;5.32;85.49;95002.66;5133125;27;20265;-75
2022/09/24 00:38:17;;;;;;;1.92;0.77;;;;;;;5.34;85.48;95002.34;5133180;27;20193;-75
2022/09/24 00:40:45;;;;;;;7.03;1.38;;;;;;;5.40;85.34;95001.19;5133274;27;20250;-75
2022/09/24 00:43:22;;;;;;;0.85;0.85;;;;;;;5.46;85.01;94994.69;5132702;27;20216;-75
2022/09/24 00:45:51;;;;;;;1.60;1.10;;;;;;;5.36;84.76;94995.59;5132385;27;20205;-75
2022/09/24 00:48:19;;;;;;;0.43;0.43;;;;;;;5.28;84.72;94993.53;5132386;27;20197;-75
2022/09/24 00:50:46;;;;;;;0.52;0.52;;;;;;;5.23;84.79;94996.28;5132214;27;20265;-75
2022/09/24 00:53:18;;;;;;;2.28;1.35;;;;;;;5.15;85.31;94996.91;5131788;27;20269;-75
2022/09/24 00:55:53;;;;;;;0.85;0.57;;;;;;;5.16;85.55;94986.97;5131888;27;20695;-75
2022/09/24 00:58:22;;;;;;;1.15;1.08;;;;;;;5.20;85.62;94985.28;5131911;27;20193;-75
2022/09/24 01:00:54;;;;;;;1.95;1.02;;;;;;;5.19;86.06;94987.22;5132337;27;20591;-75
2022/09/24 01:03:25;;;;;;;0.82;0.82;;;;;;;5.15;85.61;94978.09;5119001;27;20613;-75
2022/09/24 01:05:52;;;;;;;0.73;0.73;;;;;;;5.21;85.63;94986.91;5131971;27;20248;-76
2022/09/24 01:08:20;;;;;;;3.15;1.38;;;;;;;5.17;85.84;94980.53;5131553;27;20217;-75
2022/09/24 01:11:04;;;;;;;4.90;1.73;;;;;;;5.15;86.09;94977.31;5132138;27;20287;-75
2022/09/24 01:13:41;;;;;;;2.22;1.55;;;;;;;5.21;85.81;94986.91;5131453;27;20234;-74
2022/09/24 01:16:19;;;;;;;2.83;1.80;;;;;;;5.06;86.06;94979.03;5131550;27;20701;-75
2022/09/24 01:18:54;;;;;;;5.63;1.33;;;;;;;5.11;85.90;94976.28;5131521;27;20242;-74
2022/09/24 01:21:31;;;;;;;5.32;3.33;;;;;;;5.07;86.38;94980.59;5131595;27;20200;-74
2022/09/24 01:24:28;;;;;;;1.20;1.00;;;;;;;5.10;86.22;94974.66;5131483;27;20193;-75
2022/09/24 01:27:03;;;;;;;6.60;3.47;;;;;;;5.07;85.87;94980.59;5131538;27;20208;-75
2022/09/24 01:29:40;;;;;;;1.05;0.95;;;;;;;4.97;86.06;94982.31;5131467;27;20647;-75
2022/09/24 01:32:14;;;;;;;1.30;1.00;;;;;;;4.92;86.35;94979.66;5131862;27;20232;-74
2022/09/24 01:34:46;;;;;;;1.00;1.00;;;;;;;4.94;86.31;94976.69;5131359;27;20213;-76
2022/09/24 01:37:17;;;;;;;0.60;0.60;;;;;;;4.93;86.02;94983.94;5131659;27;20289;-75
2022/09/24 01:39:46;;;;;;;0.98;0.85;;;;;;;4.96;86.30;94978.03;5131448;27;20660;-76
2022/09/24 01:42:15;;;;;;;1.70;1.45;;;;;;;4.89;85.70;94984.81;5118331;27;20610;-75
2022/09/24 01:44:44;;;;;;;0.75;0.75;;;;;;;4.81;85.89;94983.53;5131289;27;20626;-76
2022/09/24 01:47:17;;;;;;;1.17;1.08;;;;;;;4.70;86.36;94983.91;5131993;27;20209;-77
2022/09/24 01:49:44;;;;;;;1.30;0.77;;;;;;;4.65;86.70;94984.75;5130981;27;20229;-76
2022/09/24 01:52:19;;;;;;;5.72;3.55;;;;;;;4.78;86.32;94992.16;5131688;27;20492;-76
2022/09/24 01:54:50;;;;;;;5.63;3.53;;;;;;;4.68;86.34;94989.56;5131488;27;20285;-76
2022/09/24 01:57:22;;;;;;;4.90;3.33;;;;;;;4.59;86.94;94984.00;5131842;27;20193;-75
2022/09/24 01:59:57;;;;;;;4.55;3.28;;;;;;;4.63;87.15;94993.09;5131286;27;20196;-76
2022/09/24 02:02:30;;;;;;;4.93;3.25;;;;;;;4.63;87.17;94998.47;5131489;27;20185;-75
2022/09/24 02:05:02;;;;;;;5.55;3.60;;;;;;;4.64;86.99;94994.69;5131243;27;20254;-75
2022/09/24 02:07:35;;;;;;;5.93;3.10;;;;;;;4.58;87.15;94995.00;5130730;27;20248;-75
2022/09/24 02:10:02;;;;;;;6.50;4.30;;;;;;;4.65;86.93;95000.84;5131010;27;20189;-75
2022/09/24 02:12:33;;;;;;;7.03;3.75;;;;;;;4.58;87.18;95005.75;5131391;27;20589;-75
2022/09/24 02:15:08;;;;;;;6.10;4.20;;;;;;;4.55;87.08;95004.41;5130356;27;20266;-75
2022/09/24 02:17:38;;;;;;;7.05;3.67;;;;;;;4.62;86.98;95006.78;5131442;27;20808;-75
2022/09/24 02:20:12;;;;;;;5.05;3.60;;;;;;;4.64;86.74;95010.81;5131159;28;20205;-75
2022/09/24 02:22:41;;;;;;;5.50;3.65;;;;;;;4.62;86.67;95017.53;5131305;28;20193;-76
2022/09/24 02:25:13;;;;;;;5.97;3.38;;;;;;;4.60;86.46;95014.31;5130629;28;20245;-74
2022/09/24 02:27:40;;;;;;;5.43;3.50;;;;;;;4.57;86.34;95015.66;5124039;28;20246;-76
2022/09/24 02:30:10;;;;;;;2.83;0.93;;;;;;;4.55;86.44;95019.72;5130559;28;20238;-75
2022/09/24 02:32:41;;;;;;;1.13;0.82;;;;;;;4.58;86.80;95027.19;5130893;27;20266;-75
2022/09/24 02:35:10;;;;;;;0.50;0.50;;;;;;;4.55;86.88;95025.06;5130704;28;20217;-75
2022/09/24 02:37:39;;;;;;;5.55;3.40;;;;;;;4.56;86.91;95029.34;5131215;27;20208;-74
2022/09/24 02:40:09;;;;;;;5.60;3.67;;;;;;;4.50;86.98;95028.59;5134643;27;20212;-75
2022/09/24 02:42:37;;;;;;;5.85;3.38;;;;;;;4.44;87.27;95026.22;5135393;27;20204;-76
2022/09/24 02:45:04;;;;;;;4.88;3.33;;;;;;;4.52;87.68;95034.47;5134419;27;20239;-74
2022/09/24 02:47:32;;;;;;;1.45;1.15;;;;;;;4.57;87.39;95030.97;5134718;27;20201;-77
2022/09/24 02:50:00;;;;;;;1.75;1.02;;;;;;;4.60;87.24;95035.78;5134520;27;20220;-75
2022/09/24 02:52:27;;;;;;;2.90;1.50;;;;;;;4.45;87.25;95035.88;5134577;27;20296;-74
2022/09/24 02:54:53;;;;;;;0.98;0.85;;;;;;;4.38;87.91;95043.41;5134156;27;20289;-75
2022/09/24 02:57:20;;;;;;;3.05;1.10;;;;;;;4.38;87.82;95038.06;5134297;27;20245;-75
2022/09/24 02:59:47;;;;;;;2.55;1.38;;;;;;;4.32;88.06;95045.34;5134534;27;20742;-75
2022/09/24 03:02:14;;;;;;;0.75;0.75;;;;;;;4.34;88.30;95048.56;5134191;27;20213;-74
2022/09/24 03:04:42;;;;;;;1.90;1.10;;;;;;;4.34;88.30;95048.56;5134491;27;20201;-76
2022/09/24 03:07:10;;;;;;;1.45;1.35;;;;;;;4.32;88.08;95041.88;5133560;27;20216;-74
2022/09/24 03:09:37;;;;;;;2.08;1.00;;;;;;;4.32;88.09;95040.00;5133913;27;20208;-75
2022/09/24 03:12:04;;;;;;;1.02;0.75;;;;;;;4.30;87.92;95034.09;5134357;27;20937;-75
2022/09/24 03:14:31;;;;;;;1.40;0.60;;;;;;;4.37;88.03;95041.84;5134324;27;20924;-76
2022/09/24 03:16:57;;;;;;;0.80;0.77;;;;;;;4.36;88.23;95042.91;5133594;27;20217;-76
2022/09/24 03:19:24;;;;;;;0.77;0.77;;;;;;;4.35;87.92;95033.28;5133758;27;20265;-76
2022/09/24 03:21:53;;;;;;;1.70;0.90;;;;;;;4.13;87.60;95037.13;5133698;27;20204;-76
2022/09/24 03:24:20;;;;;;;2.70;1.02;;;;;;;4.10;88.15;95043.03;5134172;27;20254;-76
2022/09/24 03:26:46;;;;;;;6.88;3.90;;;;;;;4.01;87.93;95034.00;5134225;27;20254;-76
2022/09/24 03:29:13;;;;;;;1.15;1.05;;;;;;;3.97;88.37;95054.38;5120321;27;20261;-76
2022/09/24 03:31:40;;;;;;;2.05;1.20;;;;;;;4.06;88.41;95052.75;5133865;27;20605;-76
2022/09/24 03:34:06;;;;;;;5.85;3.50;;;;;;;4.06;88.41;95047.38;5133951;27;20201;-76
2022/09/24 03:36:33;;;;;;;1.63;1.05;;;;;;;4.05;88.48;95055.69;5134238;27;20225;-76
2022/09/24 03:39:02;;;;;;;5.30;3.50;;;;;;;4.10;88.94;95064.50;5133704;27;20201;-76
2022/09/24 03:41:28;;;;;;;6.28;3.88;;;;;;;4.13;88.70;95061.25;5134340;27;20201;-75
2022/09/24 03:43:56;;;;;;;2.47;1.73;;;;;;;4.04;88.53;95070.97;5136417;27;20324;-76
2022/09/24 03:46:28;;;;;;;1.45;1.25;;;;;;;4.01;88.56;95066.16;5136387;27;20201;-76
2022/09/24 03:48:58;;;;;;;5.90;3.55;;;;;;;4.07;88.52;95059.72;5133798;27;20224;-76
2022/09/24 03:51:25;;;;;;;2.45;1.38;;;;;;;4.08;88.08;95061.31;5133156;27;20220;-75
2022/09/24 03:53:52;;;;;;;0.82;0.73;;;;;;;4.06;88.34;95062.66;5133975;27;20277;-76
2022/09/24 03:56:20;;;;;;;1.35;0.85;;;;;;;4.13;88.15;95068.50;5134440;27;20281;-76
2022/09/24 03:58:47;;;;;;;0.60;0.60;;;;;;;4.07;87.82;95069.63;5134215;27;20197;-75
2022/09/24 04:01:20;;;;;;;0.70;0.70;;;;;;;4.10;87.90;95077.91;5133405;27;20659;-76
2022/09/24 04:03:47;;;;;;;4.53;1.70;;;;;;;4.07;87.88;95075.78;5134025;27;20193;-75
2022/09/24 04:06:14;;;;;;;7.72;4.22;;;;;;;4.01;88.43;95076.88;5133272;27;20332;-75
2022/09/24 04:08:41;;;;;;;6.50;4.22;;;;;;;4.04;88.61;95068.28;5133105;27;20224;-76
2022/09/24 04:11:07;;;;;;;6.80;4.50;;;;;;;4.02;89.67;95067.75;5133614;27;20258;-76
2022/09/24 04:13:36;;;;;;;5.88;4.20;;;;;;;3.95;88.82;95082.56;5132980;27;20731;-75
2022/09/24 04:16:03;;;;;;;1.17;1.15;;;;;;;3.87;89.87;95067.81;5132926;27;20221;-75
2022/09/24 04:18:30;;;;;;;5.65;4.03;;;;;;;3.95;90.34;95072.63;5132880;27;20249;-76
2022/09/24 04:20:58;;;;;;;6.30;4.43;;;;;;;3.93;89.79;95080.13;5133180;27;20201;-75
2022/09/24 04:23:26;;;;;;;5.22;3.95;;;;;;;4.03;89.21;95080.09;5132951;27;20199;-75
2022/09/24 04:25:53;;;;;;;6.38;4.45;;;;;;;4.12;88.89;95073.06;5133015;27;20648;-75
2022/09/24 04:28:20;;;;;;;5.13;3.85;;;;;;;4.19;88.91;95076.25;5133198;27;20197;-75
2022/09/24 04:30:48;;;;;;;1.42;1.30;;;;;;;4.28;88.78;95088.00;5132812;27;20213;-75
2022/09/24 04:33:15;;;;;;;1.02;0.50;;;;;;;4.35;88.08;95097.63;5132585;27;20848;-75
2022/09/24 04:35:42;;;;;;;1.38;1.05;;;;;;;4.53;87.78;95092.41;5118628;27;20718;-75
2022/09/24 04:38:10;;;;;;;0.93;0.93;;;;;;;5.60;88.47;95086.94;5133084;27;20678;-75
2022/09/24 04:40:38;;;;;;;1.40;1.10;;;;;;;6.97;82.68;95082.50;5119019;27;20421;-75
2022/09/24 04:43:05;;;;;;;0.60;0.60;;;;;;;8.29;75.63;95073.91;5132962;27;20197;-75
2022/09/24 04:45:32;;;;;;;1.63;1.08;;;;;;;9.21;70.67;95068.88;5132363;27;20292;-74
2022/09/24 04:48:01;;;;;;;1.23;1.13;;;;;;;10.46;68.00;95059.56;5132612;27;20193;-76
2022/09/24 04:50:32;;;;;;;1.45;1.20;;;;;;;11.48;64.11;95059.88;5131723;27;20568;-75
2022/09/24 04:52:59;;;;;;;2.67;1.55;;;;;;;12.06;60.85;95051.09;5132185;27;20224;-75
2022/09/24 04:55:27;;;;;;;2.60;1.70;;;;;;;12.09;62.50;95049.66;5131978;27;20220;-75
2022/09/24 04:57:55;;;;;;;3.08;2.10;;;;;;;12.75;60.33;95042.56;5132110;27;20638;-75
2022/09/24 05:00:22;;;;;;;1.67;1.55;;;;;;;13.42;59.07;95036.09;5131592;27;20197;-75
2022/09/24 05:02:57;;;;;;;4.43;3.10;;;;;;;13.57;57.69;95039.31;5132141;27;20205;-75
2022/09/24 05:05:25;;;;;;;3.35;1.75;;;;;;;14.01;56.83;95041.22;5131985;27;20195;-75
2022/09/24 05:07:55;;;;;;;2.05;1.85;;;;;;;13.74;58.11;95050.81;5131780;27;20633;-75
2022/09/24 05:10:22;;;;;;;3.75;1.73;;;;;;;13.31;59.18;95040.38;5131711;27;20205;-75
2022/09/24 05:12:49;;;;;;;3.13;2.08;;;;;;;14.12;57.43;95053.28;5132486;27;20250;-76
2022/09/24 05:15:18;;;;;;;3.50;1.88;;;;;;;14.73;54.59;95050.56;5131633;27;20653;-75
2022/09/24 05:17:45;;;;;;;7.07;2.60;;;;;;;15.11;53.49;95046.63;5131659;27;20709;-75
2022/09/24 05:20:12;;;;;;;6.28;2.50;;;;;;;14.65;54.59;95047.94;5131697;27;20288;-74
2022/09/24 05:22:42;;;;;;;3.70;2.10;;;;;;;14.23;55.22;95046.22;5131509;27;20201;-74
2022/09/24 05:25:09;;;;;;;2.33;1.90;;;;;;;14.85;53.25;95045.09;5131697;27;20189;-75
2022/09/24 05:27:35;;;;;;;4.57;3.45;;;;;;;15.56;51.02;95033.50;5131573;27;20246;-76
2022/09/24 05:30:05;;;;;;;5.00;2.22;;;;;;;16.19;48.03;95039.03;5131958;27;20193;-74
2022/09/24 05:32:34;;;;;;;4.15;2.17;;;;;;;16.96;46.47;95036.56;5131385;27;20554;-74
2022/09/24 05:35:01;;;;;;;8.73;2.78;;;;;;;17.58;45.80;95033.91;5131584;27;20972;-76
2022/09/24 05:37:28;;;;;;;4.32;2.53;;;;;;;16.78;46.99;95042.78;5131060;27;20200;-74
2022/09/24 05:39:56;;;;;;;6.10;4.47;;;;;;;16.79;47.37;95047.91;5131408;27;20200;-74
2022/09/24 05:42:23;;;;;;;4.95;3.97;;;;;;;17.50;45.83;95035.72;5130606;27;20675;-75
2022/09/24 05:44:50;;;;;;;8.13;4.40;;;;;;;17.83;44.48;95034.41;5131487;27;20242;-74
2022/09/24 05:47:17;;;;;;;7.10;4.75;;;;;;;16.85;46.00;95054.69;5130687;27;20204;-76
2022/09/24 05:49:43;;;;;;;6.00;4.75;;;;;;;15.91;48.26;95055.50;5131109;27;20250;-74
2022/09/24 05:52:10;;;;;;;8.48;4.78;;;;;;;15.34;50.87;95060.50;5130803;27;20205;-75
2022/09/24 05:54:37;;;;;;;8.27;4.70;;;;;;;15.00;51.08;95070.88;5130789;27;20217;-77
2022/09/24 05:57:05;;;;;;;7.20;4.88;;;;;;;15.64;50.38;95068.03;5130865;27;20220;-77
2022/09/24 05:59:33;;;;;;;8.00;2.78;;;;;;;16.57;48.19;95064.94;5130835;27;20197;-74
2022/09/24 06:02:00;;;;;;;6.47;4.35;;;;;;;16.78;46.69;95061.94;5130374;27;20246;-72
2022/09/24 06:04:27;;;;;;;9.60;5.50;;;;;;;16.42;46.93;95063.00;5130631;27;20253;-73
2022/09/24 06:06:54;;;;;;;7.88;5.13;;;;;;;16.54;47.03;95065.63;5130988;27;20217;-73
2022/09/24 06:09:21;;;;;;;4.30;2.75;;;;;;;16.34;46.85;95073.00;5131056;27;20229;-74
2022/09/24 06:11:49;;;;;;;8.18;3.05;;;;;;;17.05;45.51;95070.00;5130099;27;20240;-73
2022/09/24 06:14:18;;;;;;;3.90;2.67;;;;;;;17.17;45.46;95077.28;5129925;27;20201;-74
2022/09/24 06:16:45;;;;;;;4.28;3.17;;;;;;;17.28;44.07;95072.03;5120056;27;20225;-74
2022/09/24 06:19:12;;;;;;;4.28;2.53;;;;;;;17.87;43.05;95059.94;5127556;27;20201;-74
2022/09/24 06:21:38;;;;;;;6.28;4.13;;;;;;;18.24;42.02;95058.25;5130393;28;20205;-74
2022/09/24 06:24:05;;;;;;;4.72;3.72;;;;;;;18.76;40.91;95063.06;5130062;27;20752;-74
2022/09/24 06:26:33;;;;;;;5.63;3.10;;;;;;;18.36;41.71;95060.81;5130065;28;20193;-73
2022/09/24 06:28:59;;;;;;;3.88;2.13;;;;;;;16.39;45.07;95080.13;5130697;28;20197;-75
2022/09/24 06:31:27;;;;;;;3.40;2.20;;;;;;;16.94;44.51;95079.94;5130650;27;20197;-75
2022/09/24 06:33:54;;;;;;;7.55;2.97;;;;;;;17.21;44.18;95077.38;5130748;27;20205;-75
2022/09/24 06:36:22;;;;;;;8.15;4.97;;;;;;;16.66;45.81;95082.00;5130516;28;20232;-75
2022/09/24 06:38:51;;;;;;;6.85;4.03;;;;;;;17.28;43.72;95072.03;5129993;27;20197;-74
2022/09/24 06:41:17;;;;;;;8.68;4.57;;;;;;;18.39;41.84;95071.06;5130543;27;20246;-74
2022/09/24 06:43:44;;;;;;;5.07;4.03;;;;;;;17.30;43.45;95080.69;5130168;28;20250;-75
2022/09/24 06:46:13;;;;;;;5.75;4.32;;;;;;;17.76;42.82;95078.94;5130363;28;20283;-75
2022/09/24 06:48:41;;;;;;;6.07;4.00;;;;;;;17.18;43.14;95078.09;5130193;28;20275;-73
2022/09/24 06:51:08;;;;;;;4.55;3.90;;;;;;;15.66;46.07;95088.75;5130489;28;20218;-75
2022/09/24 06:53:35;;;;;;;3.08;1.77;;;;;;;17.41;43.78;95076.22;5116719;28;20274;-73
2022/09/24 06:56:03;;;;;;;7.15;3.40;;;;;;;17.01;43.89;95080.06;5129395;28;20221;-75
2022/09/24 06:58:30;;;;;;;3.97;3.08;;;;;;;16.31;44.84;95079.94;5129159;28;20204;-73
2022/09/24 07:01:00;;;;;;;5.97;3.88;;;;;;;15.52;46.51;95081.72;5129048;28;20835;-74
2022/09/24 07:03:28;;;;;;;5.72;3.30;;;;;;;15.92;46.20;95073.47;5128948;28;20208;-74
2022/09/24 07:05:56;;;;;;;3.88;2.85;;;;;;;14.87;48.77;95083.72;5128946;28;20652;-73
2022/09/24 07:08:23;;;;;;;4.43;3.00;;;;;;;14.72;49.01;95087.16;5126039;28;20213;-74
2022/09/24 07:10:51;;;;;;;5.13;3.60;;;;;;;13.78;51.74;95102.69;5129021;28;20705;-75
2022/09/24 07:13:20;;;;;;;3.40;2.85;;;;;;;14.05;51.58;95090.38;5126904;28;20212;-73
2022/09/24 07:15:47;;;;;;;4.38;3.38;;;;;;;13.81;51.42;95099.28;5129726;27;20312;-73
2022/09/24 07:18:14;;;;;;;3.35;1.85;;;;;;;13.89;50.80;95092.97;5134993;27;20282;-73
2022/09/24 07:20:41;;;;;;;1.17;0.93;;;;;;;13.11;53.16;95101.03;5135042;28;20226;-73
2022/09/24 07:23:11;;;;;;;3.55;2.45;;;;;;;12.67;55.06;95103.22;5135577;28;20197;-73
2022/09/24 07:25:39;;;;;;;1.88;1.60;;;;;;;12.50;55.27;95106.03;5134448;27;20189;-74
2022/09/24 07:28:08;;;;;;;4.03;3.10;;;;;;;12.77;55.09;95097.41;5133423;27;20201;-75
2022/09/24 07:30:36;;;;;;;3.20;1.80;;;;;;;12.12;56.20;95097.09;5133401;27;20576;-74
2022/09/24 07:33:03;;;;;;;3.88;2.08;;;;;;;12.06;56.77;95099.97;5133283;27;20277;-74
2022/09/24 07:35:30;;;;;;;1.25;1.00;;;;;;;11.98;57.57;95098.09;5132960;27;20719;-74
2022/09/24 07:37:59;;;;;;;0.95;0.82;;;;;;;12.28;57.76;95100.88;5133003;27;20615;-73
2022/09/24 07:40:28;;;;;;;2.28;1.63;;;;;;;12.35;58.25;95098.44;5133246;27;20197;-74
2022/09/24 07:42:55;;;;;;;2.08;1.88;;;;;;;12.44;55.93;95089.09;5133474;27;20205;-74
2022/09/24 07:45:22;;;;;;;2.67;1.50;;;;;;;12.58;55.73;95091.59;5132498;27;20201;-76
2022/09/24 07:47:57;;;;;;;3.40;3.10;;;;;;;12.67;55.65;95086.91;5132903;27;20608;-75
2022/09/24 07:50:24;;;;;;;4.45;3.20;;;;;;;13.11;53.69;95090.13;5120908;27;20238;-74
2022/09/24 07:52:51;;;;;;;2.88;1.77;;;;;;;12.62;54.68;95089.00;5132829;27;20291;-74
2022/09/24 07:55:18;;;;;;;3.78;2.90;;;;;;;13.10;54.99;95088.53;5133378;27;20201;-74
2022/09/24 07:57:48;;;;;;;4.85;2.70;;;;;;;12.92;54.71;95084.34;5132247;27;20739;-73
2022/09/24 08:00:16;;;;;;;4.95;3.08;;;;;;;12.62;55.77;95084.38;5132525;27;20660;-74
2022/09/24 08:02:43;;;;;;;2.63;1.85;;;;;;;12.58;56.18;95083.44;5132951;27;20681;-73
2022/09/24 08:05:11;;;;;;;4.22;2.22;;;;;;;12.57;56.36;95087.31;5132653;27;20612;-74
2022/09/24 08:07:38;;;;;;;2.50;1.75;;;;;;;12.98;55.09;95075.69;5132448;27;20227;-74
2022/09/24 08:10:06;;;;;;;8.90;2.55;;;;;;;13.77;53.53;95074.66;5132469;27;20250;-74
2022/09/24 08:12:32;;;;;;;1.80;1.48;;;;;;;13.56;54.20;95078.56;5132317;27;20242;-74
2022/09/24 08:15:01;;;;;;;5.53;2.60;;;;;;;13.25;55.03;95074.38;5132306;27;20262;-74
2022/09/24 08:17:27;;;;;;;7.13;2.88;;;;;;;13.42;53.81;95074.19;5132260;27;20273;-74
2022/09/24 08:19:55;;;;;;;4.60;2.30;;;;;;;13.17;54.76;95072.50;5132214;27;20965;-75
2022/09/24 08:22:22;;;;;;;2.80;1.75;;;;;;;13.16;55.01;95087.22;5132416;27;20201;-74
2022/09/24 08:24:50;;;;;;;2.83;2.15;;;;;;;13.35;53.91;95079.41;5132336;27;20196;-75
2022/09/24 08:27:19;;;;;;;3.35;2.17;;;;;;;13.50;53.50;95078.78;5130842;27;20695;-74
2022/09/24 08:29:45;;;;;;;5.05;4.13;;;;;;;14.07;53.04;95071.78;5131102;27;20290;-74
2022/09/24 08:32:14;;;;;;;4.05;3.30;;;;;;;14.05;52.42;95071.31;5129042;27;20269;-74
2022/09/24 08:34:40;;;;;;;4.50;2.17;;;;;;;14.02;51.94;95075.50;5123952;27;20201;-75
2022/09/24 08:37:07;;;;;;;3.83;2.42;;;;;;;14.22;52.42;95068.38;5130405;27;20565;-74
2022/09/24 08:39:34;;;;;;;5.35;2.60;;;;;;;14.21;52.63;95070.28;5131316;27;20532;-74
2022/09/24 08:42:03;;;;;;;2.03;1.08;;;;;;;14.32;51.26;95073.38;5131561;27;20621;-73
2022/09/24 08:47:36;;;;;;;3.47;2.63;;;;;;;15.27;49.10;95058.41;5120381;27;20196;-73
2022/09/24 08:50:12;;;;;;;2.58;1.77;;;;;;;15.50;48.15;95056.69;5131337;27;20244;-73
2022/09/24 08:53:03;;;;;;;3.53;1.85;;;;;;;15.31;48.44;95053.81;5131561;27;20224;-74
2022/09/24 08:55:35;;;;;;;3.80;2.30;;;;;;;15.40;48.23;95057.22;5120079;27;20250;-74
2022/09/24 08:58:22;;;;;;;3.70;2.13;;;;;;;15.42;48.46;95046.75;5131626;27;20213;-73
2022/09/24 09:00:57;;;;;;;7.40;2.53;;;;;;;15.89;48.28;95043.31;5131587;27;20205;-74
2022/09/24 09:03:36;;;;;;;3.60;2.17;;;;;;;15.84;47.96;95046.34;5118427;27;20196;-74
2022/09/24 09:06:09;;;;;;;5.65;3.85;;;;;;;15.79;48.63;95041.91;5131782;27;20692;-70
2022/09/24 09:08:44;;;;;;;3.58;2.63;;;;;;;15.23;49.29;95032.94;5131799;27;20190;-73
2022/09/24 09:11:15;;;;;;;3.47;2.30;;;;;;;15.04;49.38;95040.94;5131567;27;20193;-73
2022/09/24 09:13:46;;;;;;;3.80;2.45;;;;;;;15.17;48.41;95042.50;5131783;27;20189;-72
2022/09/24 09:16:23;;;;;;;3.75;2.22;;;;;;;15.17;48.37;95039.78;5131508;27;20210;-71
2022/09/24 09:18:56;;;;;;;3.40;2.10;;;;;;;14.96;48.72;95037.22;5131391;27;20208;-72
2022/09/24 09:21:30;;;;;;;3.65;2.15;;;;;;;15.46;49.49;95033.97;5131114;27;20608;-72
2022/09/24 09:24:01;;;;;;;2.80;2.00;;;;;;;15.68;48.56;95027.19;5130824;27;20193;-70
2022/09/24 09:26:28;;;;;;;3.83;2.20;;;;;;;15.74;48.23;95031.22;5130397;27;20201;-73
2022/09/24 09:28:59;;;;;;;3.72;2.53;;;;;;;15.59;47.70;95019.13;5130416;27;20608;-73
2022/09/24 09:31:43;;;;;;;2.20;1.67;;;;;;;15.34;47.45;95020.38;5129766;27;20285;-71
2022/09/24 09:34:33;;;;;;;2.00;1.30;;;;;;;15.27;48.30;95018.25;5116886;27;20204;-73
2022/09/24 09:37:14;;;;;;;2.50;1.60;;;;;;;15.31;48.89;95023.03;5130576;27;20221;-74
2022/09/24 09:39:49;;;;;;;4.30;3.10;;;;;;;15.21;48.68;95016.09;5130544;27;20639;-75
2022/09/24 09:42:35;;;;;;;4.35;3.50;;;;;;;15.52;47.34;95008.00;5130302;27;20275;-76
2022/09/24 09:45:09;;;;;;;5.03;3.67;;;;;;;15.78;48.04;95006.75;5130174;27;20192;-75
2022/09/24 09:47:41;;;;;;;4.40;3.25;;;;;;;15.85;46.10;95004.22;5129278;27;20222;-75
2022/09/24 09:50:25;;;;;;;3.53;2.95;;;;;;;15.72;46.71;94999.94;5130348;27;20229;-74
2022/09/24 09:52:52;;;;;;;3.83;3.25;;;;;;;15.99;45.81;95002.59;5130617;27;20217;-75
2022/09/24 09:55:25;;;;;;;5.88;3.17;;;;;;;16.05;45.04;94994.94;5130388;27;20660;-77
2022/09/24 09:57:52;;;;;;;4.32;3.20;;;;;;;15.96;46.19;94997.06;5129817;27;20229;-73
2022/09/24 10:00:28;;;;;;;5.50;2.97;;;;;;;16.44;45.46;94986.88;5130379;27;20223;-75
2022/09/24 10:02:55;;;;;;;5.78;3.83;;;;;;;16.74;45.26;94977.03;5129968;27;20196;-75
2022/09/24 10:05:27;;;;;;;5.45;3.22;;;;;;;16.82;43.37;94967.81;5130272;27;20197;-75
2022/09/24 10:07:54;;;;;;;5.35;3.83;;;;;;;16.69;45.99;94974.56;5130229;27;20225;-76
2022/09/24 10:10:23;;;;;;;4.10;3.53;;;;;;;16.32;44.82;94972.16;5130110;27;20205;-74
2022/09/24 10:12:52;;;;;;;4.13;3.42;;;;;;;16.32;45.06;94974.91;5129680;27;20209;-72
2022/09/24 10:15:23;;;;;;;4.15;3.10;;;;;;;16.28;44.83;94971.28;5130502;27;20197;-74
2022/09/24 10:17:52;;;;;;;3.83;3.30;;;;;;;16.62;44.22;94964.28;5131882;27;20545;-74
2022/09/24 10:20:26;;;;;;;4.05;2.72;;;;;;;16.40;43.72;94967.66;5130102;27;20205;-75
2022/09/24 10:22:56;;;;;;;4.45;3.20;;;;;;;16.84;43.85;94962.78;5134469;28;20279;-75
2022/09/24 10:25:25;;;;;;;3.63;2.65;;;;;;;17.07;44.16;94962.09;5135186;28;20257;-74
2022/09/24 10:27:54;;;;;;;3.95;3.03;;;;;;;17.47;41.54;94943.31;5133081;28;20193;-75
2022/09/24 10:30:32;;;;;;;6.43;3.33;;;;;;;17.83;41.36;94943.97;5130958;28;20292;-74
2022/09/24 10:33:01;;;;;;;4.43;2.70;;;;;;;17.91;41.76;94940.19;5131681;28;20217;-74
2022/09/24 10:35:33;;;;;;;5.82;2.75;;;;;;;18.13;40.47;94935.84;5129988;28;20683;-75
2022/09/24 10:38:01;;;;;;;2.97;2.65;;;;;;;18.09;39.71;94939.31;5129307;28;20223;-76
2022/09/24 10:40:31;;;;;;;3.65;2.78;;;;;;;18.03;40.68;94934.53;5129670;28;20250;-78
2022/09/24 10:42:59;;;;;;;4.97;2.85;;;;;;;17.81;41.00;94946.28;5129559;28;20699;-74
2022/09/24 10:45:39;;;;;;;3.88;2.97;;;;;;;18.07;40.94;94938.09;5116789;28;20616;-75
2022/09/24 10:48:13;;;;;;;4.07;2.65;;;;;;;18.43;40.24;94934.75;5131424;27;20181;-74
2022/09/24 10:50:53;;;;;;;3.25;2.80;;;;;;;18.40;40.06;94935.50;5129688;27;20199;-75
2022/09/24 10:53:28;;;;;;;3.13;2.47;;;;;;;18.13;40.18;94930.38;5130311;27;20225;-76
2022/09/24 10:56:02;;;;;;;4.20;2.70;;;;;;;18.48;38.93;94925.41;5129863;28;20712;-78
2022/09/24 10:59:04;;;;;;;3.42;2.58;;;;;;;18.43;38.20;94926.53;5109724;28;20755;-81
2022/09/24 11:01:39;;;;;;;3.92;2.30;;;;;;;18.78;38.68;94922.69;5132107;27;20205;-75
2022/09/24 11:04:26;;;;;;;2.65;2.05;;;;;;;18.88;39.15;94926.75;5133769;27;20215;-75
2022/09/24 11:07:29;;;;;;;3.15;2.28;;;;;;;19.13;38.56;94934.13;5123477;27;20221;-77
2022/09/24 11:10:03;;;;;;;2.88;2.08;;;;;;;18.93;37.75;94921.72;5088365;27;20196;-75
2022/09/24 11:12:39;;;;;;;3.70;1.98;;;;;;;18.30;38.13;94927.09;5133760;27;20189;-74
2022/09/24 11:15:28;;;;;;;4.13;2.25;;;;;;;18.55;38.59;94914.53;5133242;27;20659;-78
2022/09/24 11:18:10;;;;;;;3.08;1.90;;;;;;;18.69;36.88;94919.47;5119693;27;20582;-76
2022/09/24 11:20:38;;;;;;;2.13;1.70;;;;;;;19.03;34.85;94906.53;5133171;27;20205;-78
2022/09/24 11:23:39;;;;;;;1.92;1.33;;;;;;;18.66;34.24;94899.03;5133455;27;20691;-77
2022/09/24 11:26:23;;;;;;;1.40;1.30;;;;;;;18.89;34.62;94896.16;5092857;27;20280;-74
2022/09/24 11:29:09;;;;;;;1.85;1.20;;;;;;;19.24;34.69;94889.53;5129935;27;20631;-76
2022/09/24 11:31:41;;;;;;;1.67;1.58;;;;;;;19.60;34.15;94891.47;5133263;27;20265;-76
2022/09/24 11:34:36;;;;;;;1.65;1.40;;;;;;;18.76;33.94;94883.84;5130318;27;20284;-79
2022/09/24 11:37:19;;;;;;;1.60;1.50;;;;;;;18.75;32.98;94891.28;5133552;27;20242;-76
2022/09/24 11:40:03;;;;;;;1.40;1.30;;;;;;;18.86;34.28;94872.22;5133852;27;20265;-75
2022/09/24 11:42:51;;;;;;;1.42;1.33;;;;;;;18.85;33.14;94881.63;5121139;27;20189;-76
2022/09/24 11:45:36;;;;;;;1.40;1.20;;;;;;;18.80;33.66;94884.69;5133086;27;20728;-74
2022/09/24 11:48:21;;;;;;;1.45;1.35;;;;;;;19.00;34.32;94869.63;5133054;27;20234;-69
2022/09/24 11:50:57;;;;;;;1.90;1.60;;;;;;;19.18;33.69;94869.81;5132594;27;20620;-71
2022/09/24 11:53:31;;;;;;;2.80;1.70;;;;;;;19.54;33.64;94872.97;5132710;27;20695;-69
2022/09/24 11:56:03;;;;;;;5.72;3.22;;;;;;;19.51;33.16;94871.78;5132605;27;20191;-71
2022/09/24 11:58:35;;;;;;;1.95;1.50;;;;;;;19.65;32.74;94866.41;5132261;27;20213;-71